Time;durP1;ratioP1;P1;durP2;ratioP2;P2;SDS_P1;SDS_P2;PMS_P1;PMS_P2;Temp;Humidity;BMP_temperature;BMP_pressure;BME280_temperature;BME280_humidity;BME280_pressure;Samples;Min_cycle;Max_cycle;Signal;HPM_P1;HPM_P2
2021/09/19 00:01:28;;;;;;;11.60;11.20;;;15.60;99.90;;;;;;5052640;28;20440;-61
2021/09/19 00:03:56;;;;;;;10.87;10.47;;;15.60;99.90;;;;;;5052435;28;20476;-60
2021/09/19 00:06:25;;;;;;;11.20;10.90;;;15.60;99.90;;;;;;5052700;28;20483;-60
2021/09/19 00:08:54;;;;;;;11.57;11.17;;;15.60;99.90;;;;;;5052589;28;20464;-61
2021/09/19 00:11:21;;;;;;;11.87;11.40;;;15.60;99.90;;;;;;5052412;28;20444;-62
2021/09/19 00:13:47;;;;;;;11.60;11.20;;;15.60;99.90;;;;;;5052313;28;20456;-63
2021/09/19 00:16:14;;;;;;;11.70;11.20;;;15.70;99.90;;;;;;5052439;28;20440;-62
2021/09/19 00:18:41;;;;;;;10.80;10.40;;;15.60;99.90;;;;;;5052443;28;20460;-62
2021/09/19 00:21:09;;;;;;;11.20;10.70;;;15.60;99.90;;;;;;5052145;28;20487;-60
2021/09/19 00:23:36;;;;;;;11.13;10.83;;;15.60;99.90;;;;;;5052026;28;20941;-60
2021/09/19 00:26:02;;;;;;;10.43;10.13;;;15.70;99.90;;;;;;5052543;28;20455;-60
2021/09/19 00:28:30;;;;;;;10.60;10.30;;;15.80;99.90;;;;;;5052224;28;20468;-62
2021/09/19 00:30:57;;;;;;;10.67;10.33;;;15.80;99.90;;;;;;5052018;28;20869;-63
2021/09/19 00:33:23;;;;;;;10.87;10.40;;;15.90;99.90;;;;;;5051811;28;20841;-59
2021/09/19 00:35:50;;;;;;;10.70;10.30;;;15.90;99.90;;;;;;5052179;28;20440;-61
2021/09/19 00:38:18;;;;;;;10.80;10.40;;;15.90;99.90;;;;;;5051892;28;20479;-62
2021/09/19 00:40:45;;;;;;;11.33;10.83;;;16.00;99.90;;;;;;5052085;28;20480;-59
2021/09/19 00:43:11;;;;;;;10.50;10.20;;;16.00;99.90;;;;;;5051501;28;20440;-60
2021/09/19 00:45:38;;;;;;;11.40;11.00;;;15.90;99.90;;;;;;5052007;28;20441;-63
2021/09/19 00:48:05;;;;;;;11.53;11.07;;;15.90;99.90;;;;;;5052034;28;20467;-62
2021/09/19 00:50:32;;;;;;;11.17;10.67;;;15.90;99.90;;;;;;5051858;28;20437;-61
2021/09/19 00:52:59;;;;;;;10.83;10.33;;;15.80;99.90;;;;;;5051656;28;20444;-61
2021/09/19 00:55:27;;;;;;;10.70;10.40;;;15.80;99.90;;;;;;5051220;28;20456;-59
2021/09/19 00:57:56;;;;;;;10.80;10.50;;;15.80;99.90;;;;;;5051656;28;20472;-60
2021/09/19 01:00:28;;;;;;;10.57;10.27;;;15.70;99.90;;;;;;5051654;28;20483;-61
2021/09/19 01:02:56;;;;;;;11.33;10.93;;;15.70;99.90;;;;;;5051143;28;20445;-62
2021/09/19 01:05:24;;;;;;;10.83;10.43;;;15.70;99.90;;;;;;5051488;28;20451;-61
2021/09/19 01:07:52;;;;;;;11.20;10.70;;;15.60;99.90;;;;;;5051599;28;20475;-59
2021/09/19 01:10:22;;;;;;;10.77;10.47;;;15.60;99.90;;;;;;5051588;28;20448;-59
2021/09/19 01:12:52;;;;;;;11.00;10.50;;;15.60;99.90;;;;;;5050969;28;20452;-62
2021/09/19 01:15:20;;;;;;;10.70;10.40;;;15.70;99.90;;;;;;5051669;28;20451;-60
2021/09/19 01:17:47;;;;;;;10.70;10.40;;;15.70;99.90;;;;;;5051427;28;20465;-60
2021/09/19 01:20:14;;;;;;;10.77;10.47;;;15.70;99.90;;;;;;5051361;28;20847;-59
2021/09/19 01:22:44;;;;;;;10.57;10.27;;;15.70;99.90;;;;;;5050920;28;20499;-61
2021/09/19 01:25:15;;;;;;;10.30;10.00;;;15.70;99.90;;;;;;5051485;28;20451;-60
2021/09/19 01:27:43;;;;;;;10.60;10.30;;;15.70;99.90;;;;;;5051522;28;20848;-62
2021/09/19 01:30:12;;;;;;;10.70;10.33;;;15.70;99.90;;;;;;5051302;28;20440;-63
2021/09/19 01:32:40;;;;;;;10.73;10.33;;;15.60;99.90;;;;;;5050990;28;20444;-63
2021/09/19 01:35:08;;;;;;;10.57;10.27;;;15.60;99.90;;;;;;5051132;28;21030;-62
2021/09/19 01:37:35;;;;;;;11.10;10.70;;;15.50;99.90;;;;;;5051229;28;20483;-63
2021/09/19 01:40:02;;;;;;;10.60;10.30;;;15.50;99.90;;;;;;5051170;28;20841;-61
2021/09/19 01:42:30;;;;;;;11.00;10.63;;;15.40;99.90;;;;;;5050831;28;20455;-61
2021/09/19 01:44:57;;;;;;;11.80;11.40;;;15.30;99.90;;;;;;5051270;28;20944;-62
2021/09/19 01:47:24;;;;;;;11.10;10.70;;;15.30;99.90;;;;;;5051157;28;20471;-62
2021/09/19 01:49:51;;;;;;;10.83;10.33;;;15.30;99.90;;;;;;5050948;28;20440;-63
2021/09/19 01:52:19;;;;;;;10.10;9.80;;;15.30;99.90;;;;;;5050613;28;20953;-61
2021/09/19 01:54:46;;;;;;;10.90;10.50;;;15.30;99.90;;;;;;5051054;28;20444;-61
2021/09/19 01:57:19;;;;;;;10.90;10.50;;;15.30;99.90;;;;;;5050940;28;20468;-62
2021/09/19 01:59:49;;;;;;;10.40;10.10;;;15.20;99.90;;;;;;5050743;28;20483;-63
2021/09/19 02:02:16;;;;;;;10.57;10.07;;;15.10;99.90;;;;;;5050601;28;20471;-62
2021/09/19 02:04:42;;;;;;;10.60;10.20;;;15.00;99.90;;;;;;5050661;28;20502;-61
2021/09/19 02:07:09;;;;;;;10.87;10.47;;;15.00;99.90;;;;;;5050851;28;20448;-62
2021/09/19 02:09:36;;;;;;;10.43;10.13;;;14.90;99.90;;;;;;5054841;28;20435;-62
2021/09/19 02:12:03;;;;;;;10.20;9.90;;;14.90;99.90;;;;;;5054654;28;20448;-60
2021/09/19 02:14:30;;;;;;;11.47;10.97;;;14.80;99.90;;;;;;5054488;28;20459;-62
2021/09/19 02:16:58;;;;;;;10.90;10.50;;;14.70;99.90;;;;;;5054594;28;20440;-62
2021/09/19 02:19:25;;;;;;;11.10;10.70;;;14.70;99.90;;;;;;5054841;28;20455;-61
2021/09/19 02:21:52;;;;;;;10.23;9.93;;;14.60;99.90;;;;;;5054426;28;20486;-62
2021/09/19 02:24:19;;;;;;;10.27;9.97;;;14.60;99.90;;;;;;5054342;28;20436;-63
2021/09/19 02:26:45;;;;;;;10.20;9.80;;;14.40;99.90;;;;;;5054671;28;20448;-60
2021/09/19 02:29:12;;;;;;;10.07;9.70;;;14.30;99.90;;;;;;5054448;28;20471;-62
2021/09/19 02:31:39;;;;;;;9.77;9.43;;;14.30;99.90;;;;;;5054392;28;20957;-62
2021/09/19 02:34:07;;;;;;;10.10;9.50;;;14.20;99.90;;;;;;5054274;28;20440;-61
2021/09/19 02:36:34;;;;;;;9.50;9.10;;;14.10;99.90;;;;;;5054575;28;20790;-61
2021/09/19 02:39:00;;;;;;;9.20;8.90;;;14.00;99.90;;;;;;5054224;28;20765;-61
2021/09/19 02:41:27;;;;;;;9.70;9.30;;;13.90;99.90;;;;;;5054007;28;20482;-62
2021/09/19 02:43:54;;;;;;;9.60;9.20;;;13.90;99.90;;;;;;5053703;28;20452;-61
2021/09/19 02:46:20;;;;;;;10.07;9.67;;;13.80;99.90;;;;;;5054337;28;20856;-61
2021/09/19 02:48:47;;;;;;;9.70;9.30;;;13.80;99.90;;;;;;5054154;28;20490;-62
2021/09/19 02:51:15;;;;;;;8.63;8.33;;;13.70;99.90;;;;;;5054024;28;20447;-61
2021/09/19 02:53:42;;;;;;;8.77;8.47;;;13.70;99.90;;;;;;5053770;28;20453;-61
2021/09/19 02:56:08;;;;;;;8.70;8.30;;;13.70;99.90;;;;;;5054111;28;20444;-61
2021/09/19 02:58:37;;;;;;;8.70;8.40;;;13.60;99.90;;;;;;5053893;28;20871;-60
2021/09/19 03:01:04;;;;;;;8.27;7.97;;;13.50;99.90;;;;;;5053426;28;20476;-62
2021/09/19 03:03:31;;;;;;;8.20;8.00;;;13.50;99.90;;;;;;5053897;28;20825;-60
2021/09/19 03:05:58;;;;;;;7.93;7.63;;;13.40;99.90;;;;;;5053903;28;20462;-63
2021/09/19 03:08:26;;;;;;;7.83;7.50;;;13.40;99.90;;;;;;5053754;28;20471;-61
2021/09/19 03:10:52;;;;;;;7.73;7.53;;;13.30;99.90;;;;;;5053582;28;20448;-61
2021/09/19 03:13:19;;;;;;;7.40;7.10;;;13.20;99.90;;;;;;5053733;28;20447;-60
2021/09/19 03:15:46;;;;;;;7.00;6.60;;;13.20;99.90;;;;;;5053718;28;20432;-61
2021/09/19 03:18:12;;;;;;;6.70;6.50;;;13.20;99.90;;;;;;5053158;28;20468;-60
2021/09/19 03:20:39;;;;;;;6.83;6.63;;;13.20;99.90;;;;;;5053345;28;20480;-60
2021/09/19 03:23:06;;;;;;;7.93;7.60;;;13.20;99.90;;;;;;5053329;28;20456;-62
2021/09/19 03:25:34;;;;;;;7.17;6.77;;;13.20;99.90;;;;;;5052586;28;20453;-62
2021/09/19 03:28:01;;;;;;;7.10;6.60;;;13.20;99.90;;;;;;5051762;28;20479;-59
2021/09/19 03:30:27;;;;;;;6.53;6.23;;;13.20;99.90;;;;;;5052683;28;20972;-62
2021/09/19 03:32:54;;;;;;;8.40;6.07;;;13.10;99.90;;;;;;5052515;28;20448;-61
2021/09/19 03:35:21;;;;;;;6.53;6.30;;;13.10;99.90;;;;;;5053230;28;20440;-62
2021/09/19 03:37:48;;;;;;;6.23;5.93;;;13.10;99.90;;;;;;5053512;28;20483;-57
2021/09/19 03:40:15;;;;;;;5.43;5.23;;;13.10;99.90;;;;;;5053059;28;20476;-61
2021/09/19 03:42:43;;;;;;;5.33;5.17;;;13.10;99.90;;;;;;5052073;28;20440;-58
2021/09/19 03:45:11;;;;;;;5.23;5.03;;;13.10;99.90;;;;;;5052619;28;20463;-60
2021/09/19 03:47:38;;;;;;;5.70;5.40;;;13.10;99.90;;;;;;5052465;28;20476;-58
2021/09/19 03:50:07;;;;;;;5.00;4.80;;;13.10;99.90;;;;;;5054441;28;20961;-63
2021/09/19 03:55:26;;;;;;;5.73;5.23;;;13.00;99.90;;;;;;5078010;28;20440;-61
2021/09/19 03:57:55;;;;;;;4.90;4.70;;;13.00;99.90;;;;;;5067704;28;20452;-64
2021/09/19 04:00:22;;;;;;;6.30;5.90;;;13.00;99.90;;;;;;5061779;28;20856;-63
2021/09/19 04:02:49;;;;;;;4.57;4.43;;;13.00;99.90;;;;;;5060534;28;20457;-64
2021/09/19 04:05:16;;;;;;;4.83;4.53;;;13.00;99.90;;;;;;5059204;28;20455;-63
2021/09/19 04:07:43;;;;;;;5.20;4.90;;;12.90;99.90;;;;;;5058977;28;20460;-63
2021/09/19 04:10:11;;;;;;;4.50;4.30;;;12.90;99.90;;;;;;5060346;28;20454;-64
2021/09/19 04:12:38;;;;;;;4.77;4.57;;;12.80;99.90;;;;;;5059718;28;20448;-63
2021/09/19 04:15:08;;;;;;;4.50;4.30;;;12.80;99.90;;;;;;5060055;28;20458;-65
2021/09/19 04:17:35;;;;;;;4.80;4.40;;;12.70;99.90;;;;;;5060813;28;20468;-63
2021/09/19 04:20:02;;;;;;;4.87;4.67;;;12.80;99.90;;;;;;5060434;28;20445;-64
2021/09/19 04:22:28;;;;;;;4.57;4.37;;;12.70;99.90;;;;;;5053891;28;20491;-61
2021/09/19 04:24:59;;;;;;;4.77;4.57;;;12.70;99.90;;;;;;5052671;28;20448;-63
2021/09/19 04:27:26;;;;;;;5.00;4.70;;;12.60;99.90;;;;;;5053056;28;20468;-62
2021/09/19 04:29:52;;;;;;;5.87;5.57;;;12.60;99.90;;;;;;5051893;28;20455;-62
2021/09/19 04:32:21;;;;;;;4.30;4.07;;;12.50;99.90;;;;;;5051428;28;20505;-58
2021/09/19 04:34:47;;;;;;;4.53;4.33;;;12.50;99.90;;;;;;5052382;28;20440;-60
2021/09/19 04:37:16;;;;;;;4.40;4.00;;;12.40;99.90;;;;;;5051629;28;20488;-62
2021/09/19 04:39:43;;;;;;;4.23;4.03;;;12.40;99.90;;;;;;5052513;28;20872;-63
2021/09/19 04:42:10;;;;;;;3.67;3.53;;;12.30;99.90;;;;;;5051236;28;20483;-63
2021/09/19 04:44:37;;;;;;;3.70;3.60;;;12.30;99.90;;;;;;5051805;28;20452;-63
2021/09/19 04:47:04;;;;;;;4.40;4.10;;;12.30;99.90;;;;;;5051848;28;20517;-63
2021/09/19 04:49:33;;;;;;;3.53;3.33;;;12.30;99.90;;;;;;5052029;28;20444;-63
2021/09/19 04:52:01;;;;;;;3.87;3.60;;;12.30;99.90;;;;;;5051252;28;20746;-63
2021/09/19 04:54:28;;;;;;;3.40;3.30;;;12.30;99.90;;;;;;5051993;28;20547;-63
2021/09/19 04:56:55;;;;;;;3.93;3.77;;;12.40;99.90;;;;;;5051653;28;20448;-60
2021/09/19 04:59:22;;;;;;;3.83;3.67;;;12.40;99.90;;;;;;5051471;28;20445;-62
2021/09/19 05:01:48;;;;;;;3.20;3.10;;;12.40;99.90;;;;;;5051176;28;20857;-60
2021/09/19 05:04:15;;;;;;;3.70;3.50;;;12.40;99.90;;;;;;5051584;28;20455;-61
2021/09/19 05:06:43;;;;;;;3.90;3.60;;;12.40;99.90;;;;;;5051708;28;20448;-61
2021/09/19 05:09:11;;;;;;;3.70;3.50;;;12.40;99.90;;;;;;5051646;28;20473;-61
2021/09/19 05:11:38;;;;;;;3.60;3.40;;;12.40;99.90;;;;;;5051144;28;20452;-61
2021/09/19 05:14:04;;;;;;;3.17;3.07;;;12.40;99.90;;;;;;5051507;28;20448;-60
2021/09/19 05:16:31;;;;;;;2.80;2.70;;;12.30;99.90;;;;;;5051397;28;20452;-61
2021/09/19 05:18:58;;;;;;;3.17;2.97;;;12.40;99.90;;;;;;5051578;28;20517;-61
2021/09/19 05:21:26;;;;;;;3.43;3.13;;;12.40;99.90;;;;;;5050832;28;20484;-62
2021/09/19 05:23:54;;;;;;;3.53;3.33;;;12.40;99.90;;;;;;5051426;28;20456;-62
2021/09/19 05:26:20;;;;;;;3.77;3.40;;;12.50;99.90;;;;;;5051252;28;20440;-60
2021/09/19 05:28:47;;;;;;;3.50;3.30;;;12.50;99.90;;;;;;5051149;28;20491;-59
2021/09/19 05:31:14;;;;;;;3.40;3.20;;;12.60;99.90;;;;;;5050744;28;20447;-59
2021/09/19 05:33:41;;;;;;;3.10;3.00;;;12.70;99.90;;;;;;5051464;28;20444;-61
2021/09/19 05:36:08;;;;;;;3.27;3.17;;;12.70;99.90;;;;;;5051274;28;20467;-59
2021/09/19 05:38:35;;;;;;;3.30;3.10;;;12.70;99.90;;;;;;5050354;28;20439;-60
2021/09/19 05:41:03;;;;;;;3.43;3.33;;;12.80;99.90;;;;;;5050440;28;20534;-61
2021/09/19 05:43:30;;;;;;;3.33;3.23;;;12.90;99.90;;;;;;5054885;28;20444;-59
2021/09/19 05:45:56;;;;;;;3.17;3.00;;;13.00;99.90;;;;;;5055154;28;20968;-61
2021/09/19 05:48:23;;;;;;;4.07;3.77;;;13.00;99.90;;;;;;5055275;28;20475;-61
2021/09/19 05:50:50;;;;;;;4.70;3.70;;;13.00;99.90;;;;;;5054668;28;20452;-62
2021/09/19 05:53:16;;;;;;;3.37;3.17;;;13.10;99.90;;;;;;5054891;28;20453;-61
2021/09/19 05:55:43;;;;;;;3.60;3.40;;;13.10;99.90;;;;;;5055032;28;20436;-60
2021/09/19 05:58:11;;;;;;;3.90;3.33;;;13.10;99.90;;;;;;5054894;28;20466;-61
2021/09/19 06:00:39;;;;;;;3.53;3.33;;;13.10;99.90;;;;;;5054866;28;20455;-61
2021/09/19 06:03:05;;;;;;;3.87;3.70;;;13.10;99.90;;;;;;5054729;28;20448;-62
2021/09/19 06:05:32;;;;;;;4.33;4.03;;;13.10;99.90;;;;;;5042658;28;20473;-61
2021/09/19 06:07:59;;;;;;;4.03;3.67;;;13.10;99.90;;;;;;5043595;28;20476;-62
2021/09/19 06:10:25;;;;;;;3.23;3.03;;;13.10;99.90;;;;;;5043307;28;20455;-62
2021/09/19 06:12:52;;;;;;;4.50;4.10;;;13.20;99.90;;;;;;5042744;28;20451;-61
2021/09/19 06:15:20;;;;;;;3.93;3.73;;;13.30;99.90;;;;;;5042643;28;20459;-59
2021/09/19 06:17:47;;;;;;;4.40;4.00;;;13.40;99.90;;;;;;5042851;28;20475;-59
2021/09/19 06:20:13;;;;;;;5.97;4.03;;;13.50;99.90;;;;;;5042710;28;20774;-59
2021/09/19 06:22:40;;;;;;;4.13;3.87;;;13.60;99.90;;;;;;5035774;28;20482;-62
2021/09/19 06:25:08;;;;;;;5.70;3.80;;;13.70;99.90;;;;;;5043180;28;20937;-62
2021/09/19 06:27:35;;;;;;;4.13;3.73;;;13.80;99.90;;;;;;5042578;28;20472;-62
2021/09/19 06:30:01;;;;;;;3.17;3.03;;;14.00;99.90;;;;;;5043004;28;20455;-62
2021/09/19 06:32:29;;;;;;;4.43;4.20;;;14.10;99.90;;;;;;5041877;28;20448;-61
2021/09/19 06:34:56;;;;;;;3.73;3.53;;;14.30;99.90;;;;;;5033157;28;20525;-60
2021/09/19 06:37:23;;;;;;;3.53;3.33;;;14.60;99.90;;;;;;5042215;28;20476;-60
2021/09/19 06:39:50;;;;;;;6.10;5.57;;;14.80;99.90;;;;;;5042675;28;20546;-61
2021/09/19 06:42:17;;;;;;;3.93;3.77;;;15.00;99.90;;;;;;5041654;28;20851;-63
2021/09/19 06:44:43;;;;;;;4.40;4.20;;;15.30;99.90;;;;;;5042499;28;20452;-61
2021/09/19 06:47:10;;;;;;;5.17;4.87;;;15.50;99.90;;;;;;5041976;28;20447;-62
2021/09/19 06:49:38;;;;;;;6.20;5.80;;;15.60;99.90;;;;;;5042077;28;20661;-63
2021/09/19 06:52:05;;;;;;;6.50;6.00;;;15.60;99.90;;;;;;5041846;28;20802;-63
2021/09/19 06:54:31;;;;;;;6.13;5.93;;;15.70;99.90;;;;;;5041294;28;20447;-61
2021/09/19 06:56:58;;;;;;;6.23;5.93;;;15.70;99.90;;;;;;5042002;28;20950;-62
2021/09/19 06:59:25;;;;;;;6.73;6.30;;;15.70;99.90;;;;;;5041998;28;20456;-60
2021/09/19 07:01:52;;;;;;;7.70;7.10;;;15.70;99.90;;;;;;5041676;28;21005;-62
2021/09/19 07:04:19;;;;;;;6.83;6.53;;;15.80;99.90;;;;;;5041923;28;20941;-60
2021/09/19 07:06:47;;;;;;;7.07;6.57;;;15.80;99.90;;;;;;5041838;28;20471;-56
2021/09/19 07:09:14;;;;;;;7.20;6.90;;;16.00;99.90;;;;;;5041767;28;20507;-58
2021/09/19 07:11:40;;;;;;;7.37;6.97;;;16.10;99.90;;;;;;5041387;28;20802;-59
2021/09/19 07:14:07;;;;;;;7.90;7.40;;;16.10;99.90;;;;;;5041978;28;20444;-61
2021/09/19 07:16:34;;;;;;;7.50;7.20;;;16.20;99.90;;;;;;5041652;28;20453;-59
2021/09/19 07:19:01;;;;;;;8.47;8.03;;;16.30;99.90;;;;;;5041743;28;20472;-62
2021/09/19 07:21:28;;;;;;;8.80;8.40;;;16.40;99.90;;;;;;5041175;28;20487;-60
2021/09/19 07:23:56;;;;;;;7.70;7.40;;;16.40;99.90;;;;;;5041666;28;20930;-62
2021/09/19 07:26:23;;;;;;;7.80;7.50;;;16.60;99.90;;;;;;5041223;28;20474;-61
2021/09/19 07:28:50;;;;;;;9.47;8.80;;;16.70;99.90;;;;;;5050042;28;20468;-61
2021/09/19 07:31:17;;;;;;;8.13;7.83;;;16.70;99.90;;;;;;5041492;28;20865;-62
2021/09/19 07:33:44;;;;;;;8.83;8.43;;;16.90;99.90;;;;;;5041208;28;20464;-60
2021/09/19 07:36:12;;;;;;;8.90;8.60;;;17.00;99.90;;;;;;5041829;28;20455;-59
2021/09/19 07:41:32;;;;;;;9.10;8.80;;;17.10;99.90;;;;;;5052951;28;20908;-58
2021/09/19 07:43:59;;;;;;;9.80;9.40;;;17.20;99.90;;;;;;5040997;28;20456;-61
2021/09/19 07:46:26;;;;;;;10.20;9.70;;;17.40;99.90;;;;;;5041160;28;20451;-63
2021/09/19 07:48:53;;;;;;;10.00;9.60;;;17.40;99.90;;;;;;5051574;28;20472;-64
2021/09/19 07:51:20;;;;;;;10.53;9.87;;;17.40;99.90;;;;;;5041861;28;20531;-62
2021/09/19 07:53:48;;;;;;;10.10;9.70;;;17.60;99.90;;;;;;5041740;28;20448;-61
2021/09/19 07:56:14;;;;;;;9.70;9.30;;;17.60;99.90;;;;;;5042227;28;20456;-61
2021/09/19 07:58:42;;;;;;;9.40;9.10;;;17.70;99.90;;;;;;5044335;28;20475;-62
2021/09/19 08:01:09;;;;;;;9.90;9.60;;;17.80;99.90;;;;;;5040825;28;20448;-63
2021/09/19 08:03:36;;;;;;;10.33;9.83;;;17.90;99.90;;;;;;5041083;28;20567;-60
2021/09/19 08:06:03;;;;;;;10.93;10.10;;;18.00;99.90;;;;;;5039884;28;20444;-62
2021/09/19 08:08:29;;;;;;;10.67;10.27;;;18.10;99.90;;;;;;5041713;28;20935;-62
2021/09/19 08:10:56;;;;;;;10.33;9.93;;;18.20;99.90;;;;;;5040672;28;20448;-62
2021/09/19 08:13:23;;;;;;;10.90;10.50;;;18.30;99.90;;;;;;5040508;28;20448;-62
2021/09/19 08:15:57;;;;;;;10.67;10.17;;;18.40;99.90;;;;;;5040389;28;20475;-59
2021/09/19 08:18:27;;;;;;;10.30;10.00;;;18.50;99.90;;;;;;5040083;28;20470;-61
2021/09/19 08:20:55;;;;;;;11.40;11.00;;;18.70;99.90;;;;;;5041870;28;20459;-60
2021/09/19 08:23:22;;;;;;;11.07;10.57;;;18.80;99.90;;;;;;5041120;28;20829;-59
2021/09/19 08:25:48;;;;;;;10.90;10.50;;;18.80;99.90;;;;;;5041181;28;20630;-63
2021/09/19 08:28:15;;;;;;;12.20;11.80;;;18.80;99.90;;;;;;5023099;28;20461;-63
2021/09/19 08:30:42;;;;;;;12.23;11.83;;;18.90;99.90;;;;;;5034165;28;20455;-60
2021/09/19 08:33:11;;;;;;;11.33;10.93;;;19.00;99.90;;;;;;5039941;28;20448;-64
2021/09/19 08:35:37;;;;;;;12.80;12.07;;;19.10;99.90;;;;;;5040340;28;21065;-66
2021/09/19 08:38:04;;;;;;;11.73;11.27;;;19.20;99.90;;;;;;5040225;28;20483;-66
2021/09/19 08:40:31;;;;;;;11.60;11.20;;;19.30;99.90;;;;;;5040581;28;20449;-67
2021/09/19 08:42:58;;;;;;;11.17;10.77;;;19.40;99.90;;;;;;5044274;28;20573;-64
2021/09/19 08:45:24;;;;;;;11.50;11.10;;;19.50;99.90;;;;;;5039321;28;20455;-65
2021/09/19 08:47:52;;;;;;;11.80;11.50;;;19.60;99.90;;;;;;5040055;28;20221;-63
2021/09/19 08:50:21;;;;;;;11.93;11.63;;;19.70;99.90;;;;;;5040028;28;20452;-64
2021/09/19 08:52:51;;;;;;;11.80;11.40;;;19.70;99.90;;;;;;5039423;28;20440;-65
2021/09/19 08:55:18;;;;;;;13.03;12.43;;;19.80;99.90;;;;;;5040186;28;20448;-63
2021/09/19 08:57:46;;;;;;;12.43;12.03;;;19.90;99.90;;;;;;5039832;28;20463;-64
2021/09/19 09:00:17;;;;;;;12.30;11.90;;;20.00;99.90;;;;;;5040259;28;20515;-64
2021/09/19 09:02:51;;;;;;;13.00;12.53;;;20.00;99.90;;;;;;5039370;28;21163;-63
2021/09/19 09:05:23;;;;;;;12.23;11.60;;;20.00;99.90;;;;;;5039964;28;20817;-63
2021/09/19 09:07:52;;;;;;;12.40;12.00;;;20.00;99.90;;;;;;5039801;28;20471;-63
2021/09/19 09:10:37;;;;;;;11.90;11.50;;;20.00;99.90;;;;;;5039582;28;20553;-63
2021/09/19 09:13:06;;;;;;;12.70;12.30;;;20.10;99.90;;;;;;5039213;28;20957;-63
2021/09/19 09:15:35;;;;;;;13.20;12.60;;;20.20;99.90;;;;;;5049367;28;20852;-62
2021/09/19 09:18:04;;;;;;;14.07;13.30;;;20.20;99.90;;;;;;5051076;28;20828;-62
2021/09/19 09:20:51;;;;;;;12.70;12.10;;;20.30;99.90;;;;;;5050654;28;20603;-61
2021/09/19 09:23:36;;;;;;;13.27;12.87;;;20.40;99.90;;;;;;5051163;28;20484;-62
2021/09/19 09:26:14;;;;;;;12.40;12.00;;;20.40;99.90;;;;;;5051680;28;20448;-63
2021/09/19 09:28:45;;;;;;;12.37;12.00;;;20.50;99.90;;;;;;5059283;28;20535;-60
2021/09/19 09:31:13;;;;;;;12.60;12.10;;;20.50;99.90;;;;;;5058578;28;20528;-63
2021/09/19 09:33:39;;;;;;;12.60;12.20;;;20.70;99.90;;;;;;5058495;28;20803;-64
2021/09/19 09:36:09;;;;;;;13.50;13.00;;;20.80;99.90;;;;;;5054552;28;20448;-62
2021/09/19 09:38:38;;;;;;;13.10;12.60;;;21.00;99.90;;;;;;5083641;22;20485;-61
2021/09/19 09:41:06;;;;;;;12.90;12.40;;;21.10;99.90;;;;;;5024780;28;20445;-61
2021/09/19 09:43:33;;;;;;;13.87;13.37;;;21.10;99.90;;;;;;5032826;28;20488;-62
2021/09/19 09:46:10;;;;;;;13.33;12.93;;;21.30;99.90;;;;;;5032246;28;20807;-63
2021/09/19 09:48:40;;;;;;;13.57;13.17;;;21.50;99.90;;;;;;5031989;28;20799;-63
2021/09/19 09:51:22;;;;;;;14.07;13.57;;;21.60;99.90;;;;;;5032098;28;20852;-61
2021/09/19 09:54:00;;;;;;;14.63;13.93;;;21.60;99.90;;;;;;5032440;28;20448;-63
2021/09/19 09:56:27;;;;;;;13.90;13.50;;;21.80;99.90;;;;;;5032410;28;20448;-62
2021/09/19 09:58:56;;;;;;;14.00;13.57;;;22.00;99.90;;;;;;5031571;28;20822;-63
2021/09/19 10:01:22;;;;;;;13.87;13.37;;;22.10;99.90;;;;;;5031404;28;20536;-63
2021/09/19 10:03:50;;;;;;;13.70;13.30;;;22.50;99.90;;;;;;5031172;28;20485;-62
2021/09/19 10:06:16;;;;;;;14.87;14.43;;;22.80;99.80;;;;;;5031118;28;20452;-63
2021/09/19 10:08:45;;;;;;;14.67;14.17;;;23.00;99.40;;;;;;5031049;28;20460;-61
2021/09/19 10:11:12;;;;;;;14.53;14.13;;;23.20;97.90;;;;;;5031000;28;20445;-62
2021/09/19 10:13:44;;;;;;;15.20;14.60;;;23.30;96.60;;;;;;5031116;28;20445;-63
2021/09/19 10:16:13;;;;;;;14.70;14.20;;;23.40;96.70;;;;;;5031494;28;20938;-62
2021/09/19 10:18:41;;;;;;;14.97;14.47;;;23.20;96.80;;;;;;5031034;28;20469;-61
2021/09/19 10:21:08;;;;;;;14.97;14.47;;;23.20;95.90;;;;;;5031017;28;20453;-63
2021/09/19 10:23:37;;;;;;;14.70;14.20;;;23.30;95.90;;;;;;5030955;28;20819;-63
2021/09/19 10:26:08;;;;;;;14.90;14.40;;;23.30;95.80;;;;;;5031021;28;20445;-62
2021/09/19 10:28:37;;;;;;;14.77;14.27;;;23.20;95.50;;;;;;5031699;28;20484;-62
2021/09/19 10:31:20;;;;;;;17.67;16.73;;;23.50;95.90;;;;;;5034546;28;20452;-63
2021/09/19 10:33:51;;;;;;;15.00;14.50;;;23.90;93.90;;;;;;5034622;28;20503;-62
2021/09/19 10:36:40;;;;;;;14.97;14.47;;;24.00;93.20;;;;;;5034612;28;20445;-63
2021/09/19 10:39:22;;;;;;;14.70;14.20;;;24.10;93.50;;;;;;5030116;28;21036;-62
2021/09/19 10:42:17;;;;;;;15.00;14.50;;;24.10;93.40;;;;;;5034451;28;20732;-63
2021/09/19 10:45:16;;;;;;;14.93;14.13;;;24.10;92.30;;;;;;5034422;28;20946;-61
2021/09/19 10:47:47;;;;;;;15.40;14.90;;;24.00;91.90;;;;;;5032272;28;20473;-61
2021/09/19 10:50:21;;;;;;;15.20;14.70;;;24.20;91.30;;;;;;5034322;28;20444;-61
2021/09/19 10:52:48;;;;;;;15.03;14.60;;;24.50;90.80;;;;;;5034133;28;20440;-62
2021/09/19 10:55:25;;;;;;;15.40;14.90;;;24.50;90.00;;;;;;5034162;28;20445;-63
2021/09/19 10:58:01;;;;;;;14.93;14.43;;;24.60;90.10;;;;;;5034037;28;20471;-62
2021/09/19 11:00:29;;;;;;;16.07;15.57;;;24.70;88.10;;;;;;5034209;28;20801;-62
2021/09/19 11:03:14;;;;;;;17.00;16.40;;;24.70;88.70;;;;;;5033699;28;20480;-62
2021/09/19 11:05:47;;;;;;;14.93;14.43;;;24.70;88.90;;;;;;5034046;28;20534;-63
2021/09/19 11:08:35;;;;;;;15.73;15.23;;;24.90;87.60;;;;;;5033960;28;20558;-63
2021/09/19 11:11:09;;;;;;;15.57;15.07;;;24.80;88.40;;;;;;5033800;28;20445;-63
2021/09/19 11:13:41;;;;;;;15.47;14.97;;;24.70;86.60;;;;;;5033882;28;20441;-63
2021/09/19 11:16:23;;;;;;;15.63;15.13;;;24.70;86.00;;;;;;5033923;28;20456;-61
2021/09/19 11:18:51;;;;;;;16.30;15.80;;;24.70;84.50;;;;;;5033703;28;20465;-62
2021/09/19 11:21:31;;;;;;;15.67;15.17;;;24.70;86.70;;;;;;5033581;28;20821;-62
2021/09/19 11:24:00;;;;;;;16.10;15.60;;;24.60;87.30;;;;;;5033704;28;21026;-63
2021/09/19 11:26:28;;;;;;;15.73;15.20;;;24.20;88.50;;;;;;5033617;28;20449;-60
2021/09/19 11:28:59;;;;;;;16.30;15.80;;;24.20;87.50;;;;;;5033432;28;20921;-63
2021/09/19 11:31:26;;;;;;;16.30;15.70;;;24.10;84.40;;;;;;5033515;28;20452;-63
2021/09/19 11:33:53;;;;;;;17.17;16.57;;;24.10;82.90;;;;;;5033397;28;20945;-63
2021/09/19 11:36:23;;;;;;;16.03;15.43;;;24.20;80.90;;;;;;5033449;28;20864;-63
2021/09/19 11:38:52;;;;;;;16.30;15.67;;;24.30;80.90;;;;;;5033283;28;20704;-61
2021/09/19 11:41:20;;;;;;;16.40;15.80;;;24.30;81.50;;;;;;5033035;28;20445;-63
2021/09/19 11:43:48;;;;;;;16.20;15.70;;;24.20;79.70;;;;;;5033385;28;21202;-63
2021/09/19 11:46:19;;;;;;;16.50;15.90;;;24.00;77.80;;;;;;5033228;28;20472;-62
2021/09/19 11:48:47;;;;;;;16.60;16.00;;;24.00;78.80;;;;;;5033216;28;20461;-63
2021/09/19 11:51:16;;;;;;;16.97;16.37;;;24.00;77.90;;;;;;5033043;28;20833;-61
2021/09/19 11:53:43;;;;;;;16.60;16.00;;;24.20;77.50;;;;;;5032999;28;20441;-63
2021/09/19 11:56:10;;;;;;;16.50;15.57;;;24.00;79.00;;;;;;5033138;28;20543;-63
2021/09/19 11:58:37;;;;;;;17.40;16.80;;;23.70;83.20;;;;;;5032886;28;20469;-62
2021/09/19 12:01:05;;;;;;;16.37;15.77;;;23.50;82.60;;;;;;5032865;28;20472;-62
2021/09/19 12:03:34;;;;;;;17.17;16.47;;;23.20;84.40;;;;;;5032933;28;20511;-63
2021/09/19 12:06:01;;;;;;;16.67;16.07;;;23.00;84.80;;;;;;5032927;28;20449;-63
2021/09/19 12:08:29;;;;;;;16.30;15.70;;;22.90;85.50;;;;;;5032878;28;20469;-62
2021/09/19 12:10:58;;;;;;;16.70;16.13;;;22.90;86.50;;;;;;5032738;28;20476;-61
2021/09/19 12:13:28;;;;;;;17.30;16.60;;;23.20;87.10;;;;;;5032703;28;20950;-63
2021/09/19 12:16:04;;;;;;;16.80;16.00;;;23.40;85.60;;;;;;5032778;28;20453;-63
2021/09/19 12:18:34;;;;;;;16.90;16.30;;;23.80;83.90;;;;;;5032790;28;20468;-63
2021/09/19 12:21:04;;;;;;;17.30;16.60;;;24.00;82.00;;;;;;5032532;28;20445;-62
2021/09/19 12:23:42;;;;;;;16.37;15.77;;;24.60;82.20;;;;;;5032518;28;20484;-62
2021/09/19 12:26:13;;;;;;;16.60;16.00;;;25.50;77.10;;;;;;5032516;28;20437;-63
2021/09/19 12:28:43;;;;;;;18.33;17.70;;;26.00;70.80;;;;;;5032499;28;20457;-63
2021/09/19 12:31:11;;;;;;;17.53;16.93;;;26.70;66.00;;;;;;5032167;28;20449;-62
2021/09/19 12:33:53;;;;;;;18.03;17.37;;;26.90;65.20;;;;;;5032405;28;20445;-63
2021/09/19 12:36:21;;;;;;;17.77;17.17;;;28.10;60.80;;;;;;5032288;28;20445;-63
2021/09/19 12:38:48;;;;;;;19.10;18.40;;;29.70;57.70;;;;;;5032436;28;20484;-62
2021/09/19 12:41:16;;;;;;;19.23;18.63;;;33.40;49.90;;;;;;5032326;28;20452;-63
2021/09/19 12:43:43;;;;;;;19.63;18.97;;;36.50;42.20;;;;;;5032132;28;20851;-64
2021/09/19 12:46:13;;;;;;;19.42;18.83;;;39.30;35.40;;;;;;5032064;28;20663;-63
2021/09/19 12:48:41;;;;;;;20.25;19.55;;;37.50;33.50;;;;;;5031994;28;20669;-63